Time;durP1;ratioP1;P1;durP2;ratioP2;P2;SDS_P1;SDS_P2;PMS_P1;PMS_P2;Temp;Humidity;BMP_temperature;BMP_pressure;BME280_temperature;BME280_humidity;BME280_pressure;Samples;Min_cycle;Max_cycle;Signal;HPM_P1;HPM_P2
2023/03/18 00:02:11;;;;;;;;;;;;;;;;;;5050829;28;20366;-74
2023/03/18 00:04:37;;;;;;;;;;;;;;;;;;5051220;28;19944;-73
2023/03/18 00:07:02;;;;;;;;;;;;;;;;;;5052243;28;19901;-73
2023/03/18 00:09:28;;;;;;;;;;;;;;;;;;5057968;28;19905;-74
2023/03/18 00:11:55;;;;;;;;;;;;;;;;;;5057720;28;19951;-74
2023/03/18 00:14:21;;;;;;;;;;;;;;;;;;5057747;28;19931;-73
2023/03/18 00:16:48;;;;;;;;;;;;;;;;;;5058088;28;19905;-73
2023/03/18 00:19:14;;;;;;;;;;;;;;;;;;5057708;28;19958;-73
2023/03/18 00:21:39;;;;;;;;;;;;;;;;;;5057753;28;20011;-74
2023/03/18 00:24:05;;;;;;;;;;;;;;;;;;5057768;28;19905;-74
2023/03/18 00:26:31;;;;;;;;;;;;;;;;;;5058003;28;19905;-72
2023/03/18 00:28:57;;;;;;;;;;;;;;;;;;5058044;28;19999;-73
2023/03/18 00:31:23;;;;;;;;;;;;;;;;;;5057839;28;19905;-72
2023/03/18 00:33:49;;;;;;;;;;;;;;;;;;5058125;28;19909;-72
2023/03/18 00:36:15;;;;;;;;;;;;;;;;;;5059689;28;19944;-72
2023/03/18 00:38:41;;;;;;;;;;;;;;;;;;5059194;28;19958;-73
2023/03/18 00:41:10;;;;;;;;;;;;;;;;;;5058812;28;20364;-73
2023/03/18 00:43:44;;;;;;;;;;;;;;;;;;5059197;28;19912;-73
2023/03/18 00:46:11;;;;;;;;;;;;;;;;;;5058518;28;20180;-72
2023/03/18 00:48:37;;;;;;;;;;;;;;;;;;5058276;28;19905;-73
2023/03/18 00:51:03;;;;;;;;;;;;;;;;;;5060369;28;19931;-74
2023/03/18 00:53:29;;;;;;;;;;;;;;;;;;5058303;28;19908;-74
2023/03/18 00:55:56;;;;;;;;;;;;;;;;;;5057941;28;19943;-72
2023/03/18 00:58:23;;;;;;;;;;;;;;;;;;5060410;28;19905;-72
2023/03/18 01:00:49;;;;;;;;;;;;;;;;;;5056798;28;19917;-72
2023/03/18 01:03:15;;;;;;;;;;;;;;;;;;5053707;28;19999;-74
2023/03/18 01:05:41;;;;;;;;;;;;;;;;;;5056893;28;20423;-73
2023/03/18 01:08:07;;;;;;;;;;;;;;;;;;5058530;28;19905;-74
2023/03/18 01:10:33;;;;;;;;;;;;;;;;;;5057365;28;19957;-74
2023/03/18 01:12:59;;;;;;;;;;;;;;;;;;5057013;28;19904;-73
2023/03/18 01:15:24;;;;;;;;;;;;;;;;;;5057212;28;20458;-73
2023/03/18 01:17:53;;;;;;;;;;;;;;;;;;5057149;28;19904;-72
2023/03/18 01:20:19;;;;;;;;;;;;;;;;;;5053081;28;19908;-73
2023/03/18 01:22:44;;;;;;;;;;;;;;;;;;5053714;28;19912;-73
2023/03/18 01:25:10;;;;;;;;;;;;;;;;;;5053884;28;19931;-73
2023/03/18 01:27:36;;;;;;;;;;;;;;;;;;5053853;28;19920;-74
2023/03/18 01:30:02;;;;;;;;;;;;;;;;;;5053945;28;19967;-74
2023/03/18 01:32:28;;;;;;;;;;;;;;;;;;5053419;28;19911;-73
2023/03/18 01:34:54;;;;;;;;;;;;;;;;;;5053653;28;20104;-73
2023/03/18 01:37:20;;;;;;;;;;;;;;;;;;5054018;28;19905;-74
2023/03/18 01:39:46;;;;;;;;;;;;;;;;;;5053785;28;19905;-74
2023/03/18 01:42:13;;;;;;;;;;;;;;;;;;5053451;28;19932;-72
2023/03/18 01:44:39;;;;;;;;;;;;;;;;;;5053706;28;19921;-72
2023/03/18 01:47:05;;;;;;;;;;;;;;;;;;5053790;28;19904;-72
2023/03/18 01:49:31;;;;;;;;;;;;;;;;;;5053817;28;19911;-74
2023/03/18 01:51:56;;;;;;;;;;;;;;;;;;5053889;28;19901;-73
2023/03/18 01:54:22;;;;;;;;;;;;;;;;;;5053632;28;19939;-74
2023/03/18 01:56:49;;;;;;;;;;;;;;;;;;5053397;28;19901;-74
2023/03/18 01:59:15;;;;;;;;;;;;;;;;;;5053801;28;19995;-73
2023/03/18 02:01:42;;;;;;;;;;;;;;;;;;5053358;28;20346;-74
2023/03/18 02:04:09;;;;;;;;;;;;;;;;;;5053166;28;19940;-74
2023/03/18 02:06:35;;;;;;;;;;;;;;;;;;5053411;28;20285;-75
2023/03/18 02:09:01;;;;;;;;;;;;;;;;;;5053203;28;20003;-74
2023/03/18 02:11:27;;;;;;;;;;;;;;;;;;5053186;28;19908;-74
2023/03/18 02:13:53;;;;;;;;;;;;;;;;;;5054207;28;19948;-73
2023/03/18 02:16:19;;;;;;;;;;;;;;;;;;5053978;28;20258;-74
2023/03/18 02:18:49;;;;;;;;;;;;;;;;;;5054037;28;19948;-73
2023/03/18 02:21:15;;;;;;;;;;;;;;;;;;5053131;28;19958;-74
2023/03/18 02:23:41;;;;;;;;;;;;;;;;;;5053739;28;20365;-74
2023/03/18 02:26:07;;;;;;;;;;;;;;;;;;5054011;28;20196;-72
2023/03/18 02:28:33;;;;;;;;;;;;;;;;;;5053952;28;19966;-74
2023/03/18 02:30:59;;;;;;;;;;;;;;;;;;5053459;28;20362;-73
2023/03/18 02:33:25;;;;;;;;;;;;;;;;;;5053560;28;19908;-73
2023/03/18 02:35:51;;;;;;;;;;;;;;;;;;5053871;28;20001;-73
2023/03/18 02:38:17;;;;;;;;;;;;;;;;;;5054040;28;19905;-75
2023/03/18 02:40:43;;;;;;;;;;;;;;;;;;5053715;28;19907;-73
2023/03/18 02:43:09;;;;;;;;;;;;;;;;;;5053191;28;19905;-72
2023/03/18 02:45:35;;;;;;;;;;;;;;;;;;5053490;28;20289;-73
2023/03/18 02:48:00;;;;;;;;;;;;;;;;;;5053471;28;19950;-73
2023/03/18 02:50:26;;;;;;;;;;;;;;;;;;5053385;28;20457;-73
2023/03/18 02:52:52;;;;;;;;;;;;;;;;;;5053104;28;19911;-74
2023/03/18 02:55:18;;;;;;;;;;;;;;;;;;5052652;28;19905;-73
2023/03/18 02:57:44;;;;;;;;;;;;;;;;;;5053723;28;19916;-73
2023/03/18 03:00:10;;;;;;;;;;;;;;;;;;5053285;28;19958;-73
2023/03/18 03:02:36;;;;;;;;;;;;;;;;;;5052635;28;19909;-73
2023/03/18 03:05:02;;;;;;;;;;;;;;;;;;5053819;28;20258;-73
2023/03/18 03:07:28;;;;;;;;;;;;;;;;;;5053229;28;19904;-73
2023/03/18 03:09:53;;;;;;;;;;;;;;;;;;5053085;28;19905;-72
2023/03/18 03:12:19;;;;;;;;;;;;;;;;;;5053036;28;19970;-73
2023/03/18 03:14:45;;;;;;;;;;;;;;;;;;5053237;28;20277;-73
2023/03/18 03:17:11;;;;;;;;;;;;;;;;;;5050569;28;19908;-73
2023/03/18 03:19:37;;;;;;;;;;;;;;;;;;5052666;28;20329;-73
2023/03/18 03:22:04;;;;;;;;;;;;;;;;;;5053103;28;19912;-73
2023/03/18 03:24:30;;;;;;;;;;;;;;;;;;5053384;28;20420;-72
2023/03/18 03:26:55;;;;;;;;;;;;;;;;;;5053365;28;19909;-73
2023/03/18 03:29:21;;;;;;;;;;;;;;;;;;5052990;28;19912;-74
2023/03/18 03:31:47;;;;;;;;;;;;;;;;;;5052273;28;20389;-74
2023/03/18 03:34:13;;;;;;;;;;;;;;;;;;5053480;28;19925;-73
2023/03/18 03:36:39;;;;;;;;;;;;;;;;;;5053250;28;20378;-72
2023/03/18 03:39:05;;;;;;;;;;;;;;;;;;5053265;28;20306;-73
2023/03/18 03:41:31;;;;;;;;;;;;;;;;;;5053409;28;19913;-72
2023/03/18 03:43:57;;;;;;;;;;;;;;;;;;5051709;28;19912;-72
2023/03/18 03:46:23;;;;;;;;;;;;;;;;;;5052631;28;19913;-72
2023/03/18 03:48:49;;;;;;;;;;;;;;;;;;5053958;28;19924;-72
2023/03/18 03:51:15;;;;;;;;;;;;;;;;;;5055038;28;19920;-72
2023/03/18 03:53:40;;;;;;;;;;;;;;;;;;5055724;28;20363;-72
2023/03/18 03:56:07;;;;;;;;;;;;;;;;;;5056258;28;19916;-72
2023/03/18 03:58:33;;;;;;;;;;;;;;;;;;5053864;28;19951;-72
2023/03/18 04:00:59;;;;;;;;;;;;;;;;;;5052158;28;20282;-72
2023/03/18 04:03:25;;;;;;;;;;;;;;;;;;5052024;28;20419;-72
2023/03/18 04:05:51;;;;;;;;;;;;;;;;;;5052220;28;19905;-74
2023/03/18 04:08:17;;;;;;;;;;;;;;;;;;5052147;28;19912;-75
2023/03/18 04:10:43;;;;;;;;;;;;;;;;;;5052570;28;19997;-73
2023/03/18 04:13:09;;;;;;;;;;;;;;;;;;5052169;28;19904;-73
2023/03/18 04:15:35;;;;;;;;;;;;;;;;;;5052057;28;19919;-72
2023/03/18 04:18:05;;;;;;;;;;;;;;;;;;5051867;28;19955;-72
2023/03/18 04:20:32;;;;;;;;;;;;;;;;;;5051384;28;19909;-73
2023/03/18 04:22:58;;;;;;;;;;;;;;;;;;5051237;28;20274;-73
2023/03/18 04:25:25;;;;;;;;;;;;;;;;;;5052118;28;20007;-72
2023/03/18 04:27:51;;;;;;;;;;;;;;;;;;5052056;28;20095;-72
2023/03/18 04:30:19;;;;;;;;;;;;;;;;;;5051915;28;19905;-73
2023/03/18 04:32:45;;;;;;;;;;;;;;;;;;5051785;28;20388;-72
2023/03/18 04:35:10;;;;;;;;;;;;;;;;;;5052217;28;19940;-72
2023/03/18 04:37:37;;;;;;;;;;;;;;;;;;5052678;28;19904;-74
2023/03/18 04:40:04;;;;;;;;;;;;;;;;;;5051935;28;19905;-72
2023/03/18 04:42:30;;;;;;;;;;;;;;;;;;5051578;28;19908;-73
2023/03/18 04:44:56;;;;;;;;;;;;;;;;;;5051745;28;19913;-73
2023/03/18 04:47:22;;;;;;;;;;;;;;;;;;5052000;28;19905;-72
2023/03/18 04:49:48;;;;;;;;;;;;;;;;;;5052591;28;19909;-73
2023/03/18 04:52:15;;;;;;;;;;;;;;;;;;5051559;28;19905;-73
2023/03/18 04:54:42;;;;;;;;;;;;;;;;;;5054950;28;19911;-73
2023/03/18 04:57:08;;;;;;;;;;;;;;;;;;5055448;28;19987;-72
2023/03/18 04:59:34;;;;;;;;;;;;;;;;;;5055602;28;19971;-73
2023/03/18 05:02:00;;;;;;;;;;;;;;;;;;5055139;28;19908;-72
2023/03/18 05:04:26;;;;;;;;;;;;;;;;;;5055479;28;20016;-73
2023/03/18 05:06:52;;;;;;;;;;;;;;;;;;5055703;28;20362;-71
2023/03/18 05:09:18;;;;;;;;;;;;;;;;;;5055963;28;19904;-72
2023/03/18 05:11:44;;;;;;;;;;;;;;;;;;5055237;28;19931;-72
2023/03/18 05:14:10;;;;;;;;;;;;;;;;;;5055702;28;19995;-72
2023/03/18 05:16:35;;;;;;;;;;;;;;;;;;5055960;28;19905;-74
2023/03/18 05:19:01;;;;;;;;;;;;;;;;;;5055187;28;19934;-72
2023/03/18 05:21:27;;;;;;;;;;;;;;;;;;5055157;28;19908;-73
2023/03/18 05:23:53;;;;;;;;;;;;;;;;;;5054979;28;19905;-71
2023/03/18 05:26:19;;;;;;;;;;;;;;;;;;5055420;28;19909;-73
2023/03/18 05:28:45;;;;;;;;;;;;;;;;;;5055568;28;19909;-73
2023/03/18 05:31:11;;;;;;;;;;;;;;;;;;5056042;28;20333;-72
2023/03/18 05:33:37;;;;;;;;;;;;;;;;;;5055303;28;19905;-73
2023/03/18 05:36:03;;;;;;;;;;;;;;;;;;5055008;28;19958;-72
2023/03/18 05:38:29;;;;;;;;;;;;;;;;;;5055016;28;19905;-73
2023/03/18 05:40:55;;;;;;;;;;;;;;;;;;5054779;28;19919;-73
2023/03/18 05:43:22;;;;;;;;;;;;;;;;;;5054418;28;19958;-73
2023/03/18 05:45:48;;;;;;;;;;;;;;;;;;5056044;28;19976;-73
2023/03/18 05:48:15;;;;;;;;;;;;;;;;;;5055186;28;19966;-72
2023/03/18 05:50:40;;;;;;;;;;;;;;;;;;5055849;28;19905;-74
2023/03/18 05:53:06;;;;;;;;;;;;;;;;;;5047731;28;19916;-75
2023/03/18 05:55:32;;;;;;;;;;;;;;;;;;5056331;28;20311;-76
2023/03/18 05:57:59;;;;;;;;;;;;;;;;;;5054503;28;19912;-75
2023/03/18 06:00:25;;;;;;;;;;;;;;;;;;5048862;28;20238;-74
2023/03/18 06:02:53;;;;;;;;;;;;;;;;;;5051455;28;19928;-74
2023/03/18 06:05:20;;;;;;;;;;;;;;;;;;5049797;28;20251;-75
2023/03/18 06:07:45;;;;;;;;;;;;;;;;;;5053595;28;19905;-73
2023/03/18 06:10:11;;;;;;;;;;;;;;;;;;5053701;28;20000;-75
2023/03/18 06:12:37;;;;;;;;;;;;;;;;;;5054214;28;20404;-75
2023/03/18 06:15:03;;;;;;;;;;;;;;;;;;5055002;28;19912;-75
2023/03/18 06:17:30;;;;;;;;;;;;;;;;;;5047295;28;19942;-74
2023/03/18 06:19:56;;;;;;;;;;;;;;;;;;5053609;28;19916;-75
2023/03/18 06:22:22;;;;;;;;;;;;;;;;;;5053813;28;19909;-75
2023/03/18 06:24:47;;;;;;;;;;;;;;;;;;5053714;28;19909;-73
2023/03/18 06:27:14;;;;;;;;;;;;;;;;;;5053434;28;20465;-72
2023/03/18 06:29:40;;;;;;;;;;;;;;;;;;5053715;28;19916;-75
2023/03/18 06:32:07;;;;;;;;;;;;;;;;;;5052109;28;19913;-72
2023/03/18 06:34:34;;;;;;;;;;;;;;;;;;5053034;28;19909;-73
2023/03/18 06:37:00;;;;;;;;;;;;;;;;;;5053496;28;20428;-72
2023/03/18 06:39:27;;;;;;;;;;;;;;;;;;5053569;28;19909;-71
2023/03/18 06:41:53;;;;;;;;;;;;;;;;;;5051748;28;19915;-73
2023/03/18 06:44:19;;;;;;;;;;;;;;;;;;5053540;28;19956;-73
2023/03/18 06:46:45;;;;;;;;;;;;;;;;;;5053171;28;19958;-71
2023/03/18 06:49:11;;;;;;;;;;;;;;;;;;5052984;28;19908;-73
2023/03/18 06:51:37;;;;;;;;;;;;;;;;;;5053084;28;20332;-72
2023/03/18 06:54:04;;;;;;;;;;;;;;;;;;5052426;28;19909;-72
2023/03/18 06:56:32;;;;;;;;;;;;;;;;;;5052930;28;19962;-72
2023/03/18 06:58:59;;;;;;;;;;;;;;;;;;5049663;28;19955;-72
2023/03/18 07:01:25;;;;;;;;;;;;;;;;;;5049013;28;19966;-72
2023/03/18 07:03:51;;;;;;;;;;;;;;;;;;5052612;28;19908;-72
2023/03/18 07:06:17;;;;;;;;;;;;;;;;;;5050982;28;19934;-75
2023/03/18 07:08:44;;;;;;;;;;;;;;;;;;5053120;28;19912;-74
2023/03/18 07:11:09;;;;;;;;;;;;;;;;;;5053478;28;19909;-76
2023/03/18 07:13:35;;;;;;;;;;;;;;;;;;5053094;28;19912;-75
2023/03/18 07:16:02;;;;;;;;;;;;;;;;;;5052751;28;19904;-72
2023/03/18 07:18:28;;;;;;;;;;;;;;;;;;5051757;28;20338;-71
2023/03/18 07:20:54;;;;;;;;;;;;;;;;;;5052722;28;19908;-73
2023/03/18 07:23:20;;;;;;;;;;;;;;;;;;5052331;28;19911;-72
2023/03/18 07:25:46;;;;;;;;;;;;;;;;;;5052517;28;19904;-73
2023/03/18 07:28:12;;;;;;;;;;;;;;;;;;5052634;28;19959;-72
2023/03/18 07:30:38;;;;;;;;;;;;;;;;;;5052731;28;19900;-72
2023/03/18 07:33:04;;;;;;;;;;;;;;;;;;5052503;28;19991;-75
2023/03/18 07:35:30;;;;;;;;;;;;;;;;;;5052672;28;19901;-74
2023/03/18 07:37:56;;;;;;;;;;;;;;;;;;5053353;28;20248;-74
2023/03/18 07:40:22;;;;;;;;;;;;;;;;;;5053674;28;19900;-73
2023/03/18 07:42:50;;;;;;;;;;;;;;;;;;5052989;28;19909;-74
2023/03/18 07:45:16;;;;;;;;;;;;;;;;;;5052358;28;19999;-74
2023/03/18 07:47:42;;;;;;;;;;;;;;;;;;5053311;28;19990;-73
2023/03/18 07:50:08;;;;;;;;;;;;;;;;;;5052436;28;19908;-75
2023/03/18 07:52:34;;;;;;;;;;;;;;;;;;5052566;28;19912;-76
2023/03/18 07:55:00;;;;;;;;;;;;;;;;;;5053817;28;20000;-75
2023/03/18 07:57:26;;;;;;;;;;;;;;;;;;5052605;28;19904;-72
2023/03/18 07:59:52;;;;;;;;;;;;;;;;;;5050625;28;19905;-72
2023/03/18 08:02:19;;;;;;;;;;;;;;;;;;5051933;28;19971;-72
2023/03/18 08:04:45;;;;;;;;;;;;;;;;;;5052295;28;19916;-73
2023/03/18 08:07:11;;;;;;;;;;;;;;;;;;5051859;28;19995;-73
2023/03/18 08:09:37;;;;;;;;;;;;;;;;;;5052100;28;19909;-73
2023/03/18 08:12:03;;;;;;;;;;;;;;;;;;5050358;28;19908;-70
2023/03/18 08:14:30;;;;;;;;;;;;;;;;;;5051855;28;19904;-72
2023/03/18 08:16:56;;;;;;;;;;;;;;;;;;5051962;28;19931;-71
2023/03/18 08:19:22;;;;;;;;;;;;;;;;;;5051303;28;20423;-72
2023/03/18 08:21:47;;;;;;;;;;;;;;;;;;5051764;28;19908;-72
2023/03/18 08:24:13;;;;;;;;;;;;;;;;;;5052076;28;19905;-72
2023/03/18 08:26:39;;;;;;;;;;;;;;;;;;5049515;28;19994;-74
2023/03/18 08:29:05;;;;;;;;;;;;;;;;;;5053876;28;20245;-74
2023/03/18 08:31:31;;;;;;;;;;;;;;;;;;5055586;28;19905;-73
2023/03/18 08:33:58;;;;;;;;;;;;;;;;;;5055576;28;20420;-71
2023/03/18 08:36:24;;;;;;;;;;;;;;;;;;5055998;28;20386;-72
2023/03/18 08:38:50;;;;;;;;;;;;;;;;;;5055894;28;19908;-72
2023/03/18 08:41:15;;;;;;;;;;;;;;;;;;5055820;28;19908;-72
2023/03/18 08:43:41;;;;;;;;;;;;;;;;;;5054089;28;19955;-74
2023/03/18 08:46:07;;;;;;;;;;;;;;;;;;5055429;28;19905;-75
2023/03/18 08:48:34;;;;;;;;;;;;;;;;;;5055790;28;19919;-73
2023/03/18 08:51:00;;;;;;;;;;;;;;;;;;5055451;28;20374;-75
2023/03/18 08:53:26;;;;;;;;;;;;;;;;;;5055518;28;19905;-73
2023/03/18 08:55:52;;;;;;;;;;;;;;;;;;5055852;28;19927;-73
2023/03/18 08:58:17;;;;;;;;;;;;;;;;;;5056580;28;19904;-73
2023/03/18 09:00:43;;;;;;;;;;;;;;;;;;5057334;28;19911;-73
2023/03/18 09:03:09;;;;;;;;;;;;;;;;;;5061325;28;19904;-72
2023/03/18 09:05:36;;;;;;;;;;;;;;;;;;5062504;28;19905;-73
2023/03/18 09:08:02;;;;;;;;;;;;;;;;;;5055493;28;20274;-75
2023/03/18 09:10:29;;;;;;;;;;;;;;;;;;5055437;28;19908;-73
2023/03/18 09:12:55;;;;;;;;;;;;;;;;;;5057876;28;19909;-74
2023/03/18 09:15:21;;;;;;;;;;;;;;;;;;5058306;28;19995;-73
2023/03/18 09:17:47;;;;;;;;;;;;;;;;;;5055161;28;20371;-72
2023/03/18 09:20:13;;;;;;;;;;;;;;;;;;5055237;28;19909;-73
2023/03/18 09:22:39;;;;;;;;;;;;;;;;;;5063440;28;19909;-73
2023/03/18 09:25:05;;;;;;;;;;;;;;;;;;5063738;28;19908;-73
2023/03/18 09:27:31;;;;;;;;;;;;;;;;;;5055520;28;20381;-75
2023/03/18 09:29:57;;;;;;;;;;;;;;;;;;5053288;28;19905;-75
2023/03/18 09:32:22;;;;;;;;;;;;;;;;;;5054319;28;19966;-73
2023/03/18 09:34:49;;;;;;;;;;;;;;;;;;5055064;28;19908;-73
2023/03/18 09:37:15;;;;;;;;;;;;;;;;;;5054845;28;19908;-74
2023/03/18 09:39:41;;;;;;;;;;;;;;;;;;5054086;28;19908;-73
2023/03/18 09:42:07;;;;;;;;;;;;;;;;;;5053945;28;19995;-75
2023/03/18 09:44:33;;;;;;;;;;;;;;;;;;5054761;28;19994;-72
2023/03/18 09:46:59;;;;;;;;;;;;;;;;;;5054418;28;19963;-74
2023/03/18 09:49:25;;;;;;;;;;;;;;;;;;5054032;28;19947;-74
2023/03/18 09:51:52;;;;;;;;;;;;;;;;;;5052587;28;19999;-75
2023/03/18 09:54:19;;;;;;;;;;;;;;;;;;5054451;28;20185;-72
2023/03/18 09:56:45;;;;;;;;;;;;;;;;;;5054289;28;19908;-74
2023/03/18 09:59:11;;;;;;;;;;;;;;;;;;5054275;28;20403;-73
2023/03/18 10:01:37;;;;;;;;;;;;;;;;;;5053950;28;20370;-73
2023/03/18 10:04:03;;;;;;;;;;;;;;;;;;5054610;28;19905;-74
2023/03/18 10:06:29;;;;;;;;;;;;;;;;;;5056041;28;20293;-73
2023/03/18 10:08:55;;;;;;;;;;;;;;;;;;5057562;28;19915;-75
2023/03/18 10:11:21;;;;;;;;;;;;;;;;;;5055603;28;19907;-75
2023/03/18 10:13:47;;;;;;;;;;;;;;;;;;5054680;28;20027;-73
2023/03/18 10:16:14;;;;;;;;;;;;;;;;;;5054706;28;19944;-75
2023/03/18 10:18:40;;;;;;;;;;;;;;;;;;5054463;28;19904;-74
2023/03/18 10:21:06;;;;;;;;;;;;;;;;;;5053913;28;19908;-74
2023/03/18 10:23:32;;;;;;;;;;;;;;;;;;5054345;28;19909;-74
2023/03/18 10:25:58;;;;;;;;;;;;;;;;;;5054267;28;19905;-72
2023/03/18 10:28:24;;;;;;;;;;;;;;;;;;5059407;28;19905;-77
2023/03/18 10:30:51;;;;;;;;;;;;;;;;;;5062104;28;19904;-77
2023/03/18 10:33:17;;;;;;;;;;;;;;;;;;5061274;28;19905;-77
2023/03/18 10:35:43;;;;;;;;;;;;;;;;;;5059739;28;19912;-75
2023/03/18 10:38:09;;;;;;;;;;;;;;;;;;5061037;28;20301;-76
2023/03/18 10:40:35;;;;;;;;;;;;;;;;;;5059448;28;20417;-77
2023/03/18 10:43:01;;;;;;;;;;;;;;;;;;5055205;28;19909;-75
2023/03/18 10:45:27;;;;;;;;;;;;;;;;;;5052535;28;19919;-74
2023/03/18 10:47:53;;;;;;;;;;;;;;;;;;5053772;28;20036;-74
2023/03/18 10:50:19;;;;;;;;;;;;;;;;;;5053441;28;20351;-75
2023/03/18 10:52:45;;;;;;;;;;;;;;;;;;5053658;28;20361;-74
2023/03/18 10:55:13;;;;;;;;;;;;;;;;;;5053806;28;19911;-74
2023/03/18 10:57:38;;;;;;;;;;;;;;;;;;5057236;28;19959;-74
2023/03/18 11:00:04;;;;;;;;;;;;;;;;;;5054686;28;19909;-75
2023/03/18 11:02:31;;;;;;;;;;;;;;;;;;5053943;28;19909;-74
2023/03/18 11:04:57;;;;;;;;;;;;;;;;;;5053886;28;19943;-75
2023/03/18 11:07:24;;;;;;;;;;;;;;;;;;5051903;28;19952;-74
2023/03/18 11:09:50;;;;;;;;;;;;;;;;;;5053627;28;19966;-74
2023/03/18 11:12:17;;;;;;;;;;;;;;;;;;5053217;28;19913;-73
2023/03/18 11:14:43;;;;;;;;;;;;;;;;;;5053569;28;19991;-74
2023/03/18 11:17:09;;;;;;;;;;;;;;;;;;5054377;28;19905;-74
2023/03/18 11:19:37;;;;;;;;;;;;;;;;;;5048288;28;19923;-74
2023/03/18 11:22:03;;;;;;;;;;;;;;;;;;5049450;28;19923;-74
2023/03/18 11:24:37;;;;;;;;;;;;;;;;;;5051908;28;19999;-74
2023/03/18 11:27:03;;;;;;;;;;;;;;;;;;5051017;28;19908;-74
2023/03/18 11:29:31;;;;;;;;;;;;;;;;;;5048152;28;20368;-76
2023/03/18 11:31:57;;;;;;;;;;;;;;;;;;5049394;28;20239;-78
2023/03/18 11:34:23;;;;;;;;;;;;;;;;;;5051603;28;19963;-76
2023/03/18 11:36:49;;;;;;;;;;;;;;;;;;5047258;28;19924;-74
2023/03/18 11:39:15;;;;;;;;;;;;;;;;;;5040986;28;20042;-75
2023/03/18 11:41:41;;;;;;;;;;;;;;;;;;5044240;28;20610;-76
2023/03/18 11:44:07;;;;;;;;;;;;;;;;;;5046279;28;19913;-75
2023/03/18 11:46:33;;;;;;;;;;;;;;;;;;5043218;28;19913;-74
2023/03/18 11:48:59;;;;;;;;;;;;;;;;;;5043149;28;19905;-73
2023/03/18 11:51:25;;;;;;;;;;;;;;;;;;5047416;28;19908;-75
2023/03/18 11:53:51;;;;;;;;;;;;;;;;;;5051369;28;19905;-74
2023/03/18 11:56:17;;;;;;;;;;;;;;;;;;5052453;28;20252;-75
2023/03/18 11:58:43;;;;;;;;;;;;;;;;;;5052584;28;19962;-74
2023/03/18 12:01:09;;;;;;;;;;;;;;;;;;5052373;28;19908;-74
2023/03/18 12:03:35;;;;;;;;;;;;;;;;;;5051358;28;19931;-74
2023/03/18 12:06:01;;;;;;;;;;;;;;;;;;5052612;28;19940;-75
2023/03/18 12:08:28;;;;;;;;;;;;;;;;;;5052623;28;19951;-76
2023/03/18 12:10:54;;;;;;;;;;;;;;;;;;5053097;28;19904;-74
2023/03/18 12:13:20;;;;;;;;;;;;;;;;;;5051904;28;19969;-75
2023/03/18 12:15:46;;;;;;;;;;;;;;;;;;5054047;28;20421;-72
2023/03/18 12:18:13;;;;;;;;;;;;;;;;;;5054214;28;19911;-73
2023/03/18 12:20:39;;;;;;;;;;;;;;;;;;5052816;28;19905;-74
2023/03/18 12:23:05;;;;;;;;;;;;;;;;;;5049626;28;20370;-73
2023/03/18 12:25:31;;;;;;;;;;;;;;;;;;5045093;28;19908;-72
2023/03/18 12:27:57;;;;;;;;;;;;;;;;;;5051506;28;19955;-74
2023/03/18 12:30:24;;;;;;;;;;;;;;;;;;5048250;28;20219;-72
2023/03/18 12:32:49;;;;;;;;;;;;;;;;;;5051324;28;19905;-75
2023/03/18 12:35:15;;;;;;;;;;;;;;;;;;5050054;28;19915;-73
2023/03/18 12:37:41;;;;;;;;;;;;;;;;;;5050171;28;20458;-73
2023/03/18 12:40:11;;;;;;;;;;;;;;;;;;5043652;28;19965;-73
2023/03/18 12:42:37;;;;;;;;;;;;;;;;;;5036713;28;19931;-74
2023/03/18 12:45:04;;;;;;;;;;;;;;;;;;5044939;28;19951;-73
2023/03/18 12:47:30;;;;;;;;;;;;;;;;;;5051106;28;19905;-75
2023/03/18 12:49:57;;;;;;;;;;;;;;;;;;5049666;28;20383;-78
2023/03/18 12:52:23;;;;;;;;;;;;;;;;;;5046242;28;19909;-74
2023/03/18 12:54:49;;;;;;;;;;;;;;;;;;5051260;28;19905;-73
2023/03/18 12:57:15;;;;;;;;;;;;;;;;;;5048600;28;19917;-74
2023/03/18 12:59:40;;;;;;;;;;;;;;;;;;5050869;28;19954;-73
2023/03/18 13:02:06;;;;;;;;;;;;;;;;;;5056600;28;20379;-72
2023/03/18 13:04:34;;;;;;;;;;;;;;;;;;5071890;28;19911;-73
2023/03/18 13:07:00;;;;;;;;;;;;;;;;;;5071318;28;19908;-72
2023/03/18 13:09:26;;;;;;;;;;;;;;;;;;5071408;28;20373;-73
2023/03/18 13:11:52;;;;;;;;;;;;;;;;;;5071471;28;19919;-75
2023/03/18 13:14:18;;;;;;;;;;;;;;;;;;5072705;28;19943;-74
2023/03/18 13:16:44;;;;;;;;;;;;;;;;;;5074948;28;19904;-74
2023/03/18 13:19:11;;;;;;;;;;;;;;;;;;5074973;28;19904;-75
2023/03/18 13:21:37;;;;;;;;;;;;;;;;;;5074278;28;19916;-75
2023/03/18 13:24:03;;;;;;;;;;;;;;;;;;5074972;28;19905;-73
2023/03/18 13:26:29;;;;;;;;;;;;;;;;;;5075088;28;19949;-77
2023/03/18 13:28:55;;;;;;;;;;;;;;;;;;5081980;28;19958;-74
2023/03/18 13:31:21;;;;;;;;;;;;;;;;;;5094837;28;19904;-76
2023/03/18 13:33:47;;;;;;;;;;;;;;;;;;5090321;28;19920;-77
2023/03/18 13:36:13;;;;;;;;;;;;;;;;;;5099018;28;20011;-75
2023/03/18 13:38:39;;;;;;;;;;;;;;;;;;5089360;28;19954;-76
2023/03/18 13:41:05;;;;;;;;;;;;;;;;;;5075657;28;19914;-77
2023/03/18 13:43:31;;;;;;;;;;;;;;;;;;5074769;28;20343;-73
2023/03/18 13:45:57;;;;;;;;;;;;;;;;;;5074509;28;19958;-72
2023/03/18 13:48:23;;;;;;;;;;;;;;;;;;5072631;28;19916;-73
2023/03/18 13:50:49;;;;;;;;;;;;;;;;;;5074329;28;19911;-73
2023/03/18 13:53:15;;;;;;;;;;;;;;;;;;5073545;28;19912;-74
2023/03/18 13:55:43;;;;;;;;;;;;;;;;;;5074302;28;19912;-73
2023/03/18 13:58:09;;;;;;;;;;;;;;;;;;5074683;28;19938;-75
2023/03/18 14:00:37;;;;;;;;;;;;;;;;;;5075499;28;19991;-73
2023/03/18 14:03:03;;;;;;;;;;;;;;;;;;5074260;28;20370;-73
2023/03/18 14:05:28;;;;;;;;;;;;;;;;;;5074494;28;19913;-72
2023/03/18 14:07:54;;;;;;;;;;;;;;;;;;5073475;28;19909;-74
2023/03/18 14:10:20;;;;;;;;;;;;;;;;;;5073686;28;19951;-73
2023/03/18 14:12:47;;;;;;;;;;;;;;;;;;5073004;28;19909;-74
2023/03/18 14:15:12;;;;;;;;;;;;;;;;;;5075884;28;19911;-73
2023/03/18 14:17:39;;;;;;;;;;;;;;;;;;5077550;28;19909;-75
2023/03/18 14:20:05;;;;;;;;;;;;;;;;;;5075775;28;19905;-72
2023/03/18 14:22:31;;;;;;;;;;;;;;;;;;5075326;28;20006;-74
2023/03/18 14:24:57;;;;;;;;;;;;;;;;;;5074511;28;20388;-73
2023/03/18 14:27:24;;;;;;;;;;;;;;;;;;5073732;28;20043;-73
2023/03/18 14:29:50;;;;;;;;;;;;;;;;;;5074351;28;19915;-74
2023/03/18 14:32:16;;;;;;;;;;;;;;;;;;5074043;28;20293;-75
2023/03/18 14:34:42;;;;;;;;;;;;;;;;;;5073672;28;19915;-74
2023/03/18 14:37:09;;;;;;;;;;;;;;;;;;5073073;28;19966;-73
2023/03/18 14:39:35;;;;;;;;;;;;;;;;;;5073387;28;19904;-74
2023/03/18 14:42:00;;;;;;;;;;;;;;;;;;5073435;28;20212;-74
2023/03/18 14:44:27;;;;;;;;;;;;;;;;;;5080214;28;19923;-77
2023/03/18 14:46:52;;;;;;;;;;;;;;;;;;5077957;28;19905;-77
2023/03/18 14:49:18;;;;;;;;;;;;;;;;;;5079530;28;20362;-77
2023/03/18 14:51:44;;;;;;;;;;;;;;;;;;5079250;28;19912;-78
2023/03/18 14:54:10;;;;;;;;;;;;;;;;;;5078777;28;20163;-78
2023/03/18 14:56:36;;;;;;;;;;;;;;;;;;5080623;28;19957;-78
2023/03/18 14:59:02;;;;;;;;;;;;;;;;;;5075768;28;19912;-78
2023/03/18 15:01:28;;;;;;;;;;;;;;;;;;5077965;28;19908;-77
2023/03/18 15:03:54;;;;;;;;;;;;;;;;;;5077340;28;19913;-77
2023/03/18 15:06:20;;;;;;;;;;;;;;;;;;5075623;28;19912;-76
2023/03/18 15:08:46;;;;;;;;;;;;;;;;;;5076473;28;19904;-75
2023/03/18 15:11:13;;;;;;;;;;;;;;;;;;5081957;28;19966;-78
2023/03/18 15:13:38;;;;;;;;;;;;;;;;;;5078127;28;19926;-76
2023/03/18 15:16:04;;;;;;;;;;;;;;;;;;5076691;28;19938;-74
2023/03/18 15:18:31;;;;;;;;;;;;;;;;;;5073705;28;20028;-77
2023/03/18 15:20:58;;;;;;;;;;;;;;;;;;5072517;28;19908;-74
2023/03/18 15:23:24;;;;;;;;;;;;;;;;;;5072482;28;19904;-77
2023/03/18 15:25:50;;;;;;;;;;;;;;;;;;5077484;28;19903;-76
2023/03/18 15:28:16;;;;;;;;;;;;;;;;;;5073021;28;19905;-74
2023/03/18 15:30:43;;;;;;;;;;;;;;;;;;5055410;28;19947;-78
2023/03/18 15:33:09;;;;;;;;;;;;;;;;;;5052133;28;20297;-76
2023/03/18 15:35:35;;;;;;;;;;;;;;;;;;5052239;28;19927;-75
2023/03/18 15:38:01;;;;;;;;;;;;;;;;;;5050870;28;19955;-74
2023/03/18 15:40:30;;;;;;;;;;;;;;;;;;5052670;28;19911;-75
2023/03/18 15:42:56;;;;;;;;;;;;;;;;;;5051377;28;20358;-77
2023/03/18 15:45:22;;;;;;;;;;;;;;;;;;5054695;28;19993;-78
2023/03/18 15:47:48;;;;;;;;;;;;;;;;;;5052335;28;19943;-76
2023/03/18 15:50:14;;;;;;;;;;;;;;;;;;5052866;28;19909;-73
2023/03/18 15:52:40;;;;;;;;;;;;;;;;;;5052758;28;20212;-75
2023/03/18 15:55:06;;;;;;;;;;;;;;;;;;5051324;28;19909;-74
2023/03/18 15:57:33;;;;;;;;;;;;;;;;;;5052698;28;20082;-73
2023/03/18 15:59:59;;;;;;;;;;;;;;;;;;5052774;28;19989;-75
2023/03/18 16:02:26;;;;;;;;;;;;;;;;;;5051538;28;19916;-73
2023/03/18 16:04:52;;;;;;;;;;;;;;;;;;5051055;28;20405;-72
2023/03/18 16:07:19;;;;;;;;;;;;;;;;;;5050789;28;19911;-73
2023/03/18 16:09:44;;;;;;;;;;;;;;;;;;5051022;28;20359;-77
2023/03/18 16:12:11;;;;;;;;;;;;;;;;;;5051519;28;20222;-74
2023/03/18 16:14:38;;;;;;;;;;;;;;;;;;5052046;28;19955;-74
2023/03/18 16:17:04;;;;;;;;;;;;;;;;;;5052066;28;19909;-74
2023/03/18 16:19:29;;;;;;;;;;;;;;;;;;5052877;28;20270;-74
2023/03/18 16:21:55;;;;;;;;;;;;;;;;;;5051797;28;20423;-74
2023/03/18 16:24:21;;;;;;;;;;;;;;;;;;5052049;28;19912;-76
2023/03/18 16:26:47;;;;;;;;;;;;;;;;;;5052032;28;19944;-74
2023/03/18 16:29:14;;;;;;;;;;;;;;;;;;5050808;28;19936;-72
2023/03/18 16:31:40;;;;;;;;;;;;;;;;;;5048872;28;20354;-72
2023/03/18 16:34:06;;;;;;;;;;;;;;;;;;5050254;28;20007;-74
2023/03/18 16:36:33;;;;;;;;;;;;;;;;;;5051045;28;19912;-73
2023/03/18 16:38:59;;;;;;;;;;;;;;;;;;5051019;28;20324;-75